Time;durP1;ratioP1;P1;durP2;ratioP2;P2;SDS_P1;SDS_P2;PMS_P1;PMS_P2;Temp;Humidity;BMP_temperature;BMP_pressure;BME280_temperature;BME280_humidity;BME280_pressure;Samples;Min_cycle;Max_cycle;Signal;HPM_P1;HPM_P2
2021/04/13 11:13:16;;;;;;;10.25;5.20;;;10.60;48.20;;;;;;4266102;27;20918;-72
2021/04/13 11:15:59;;;;;;;11.23;5.35;;;10.10;47.60;;;;;;4249506;27;20048;-70
2021/04/13 11:18:09;;;;;;;8.82;4.38;;;10.40;48.10;;;;;;4260980;27;20410;-71
2021/04/13 11:20:24;;;;;;;13.15;6.10;;;11.10;47.90;;;;;;4243599;28;20039;-72
2021/04/13 11:22:56;;;;;;;16.77;6.40;;;10.60;45.30;;;;;;4245137;28;20047;-70
2021/04/13 11:25:27;;;;;;;9.70;5.60;;;10.60;45.50;;;;;;4246479;27;20498;-72
2021/04/13 11:28:08;;;;;;;11.88;5.65;;;10.30;46.60;;;;;;4224956;28;20058;-71
2021/04/13 11:30:36;;;;;;;13.88;5.18;;;10.60;46.60;;;;;;4225618;27;20082;-72
2021/04/13 11:33:10;;;;;;;11.55;6.72;;;11.50;45.80;;;;;;4271191;27;20047;-71
2021/04/13 11:35:20;;;;;;;20.90;7.90;;;10.90;44.40;;;;;;4270464;27;20043;-72
2021/04/13 11:37:49;;;;;;;10.13;5.35;;;10.70;44.50;;;;;;4248277;28;20043;-76
2021/04/13 11:40:10;;;;;;;10.25;4.15;;;10.40;44.40;;;;;;4266940;27;20039;-71
2021/04/13 11:42:17;;;;;;;10.68;5.47;;;10.60;44.10;;;;;;4262351;27;20072;-75
2021/04/13 11:44:30;;;;;;;12.95;6.00;;;10.50;43.20;;;;;;4259681;27;20047;-73
2021/04/13 11:46:49;;;;;;;10.52;5.47;;;10.60;44.80;;;;;;4258497;27;20046;-69
2021/04/13 11:48:56;;;;;;;29.48;5.57;;;10.90;44.90;;;;;;4264978;27;20047;-70
2021/04/13 11:51:04;;;;;;;17.13;7.07;;;11.10;43.30;;;;;;4263454;27;20054;-70
2021/04/13 11:53:09;;;;;;;11.40;4.97;;;10.90;43.20;;;;;;4262295;27;20071;-71
2021/04/13 11:55:42;;;;;;;15.60;5.40;;;11.30;42.60;;;;;;4262138;27;20116;-71
2021/04/13 11:58:03;;;;;;;15.23;5.07;;;11.60;42.00;;;;;;4242845;27;20043;-71
2021/04/13 12:00:29;;;;;;;11.30;5.78;;;11.70;41.90;;;;;;4261374;27;20108;-71
2021/04/13 12:02:31;;;;;;;12.90;6.40;;;11.80;42.50;;;;;;4260951;27;20103;-71
2021/04/13 12:04:42;;;;;;;10.02;4.82;;;11.30;42.00;;;;;;4243002;28;20157;-71
2021/04/13 12:06:51;;;;;;;13.23;6.47;;;11.50;42.30;;;;;;4261301;27;20047;-71
2021/04/13 12:08:53;;;;;;;10.15;6.13;;;11.20;42.50;;;;;;4260969;27;20104;-71
2021/04/13 12:10:57;;;;;;;8.57;6.00;;;11.40;42.60;;;;;;4260638;27;20569;-71
2021/04/13 12:13:00;;;;;;;13.13;8.27;;;12.10;44.00;;;;;;4261518;27;20724;-71
2021/04/13 12:15:40;;;;;;;11.45;6.15;;;12.20;42.90;;;;;;4264446;27;20054;-71
2021/04/13 12:17:44;;;;;;;11.27;5.55;;;12.30;41.70;;;;;;4264234;27;20043;-71
2021/04/13 12:20:35;;;;;;;7.18;4.15;;;12.30;41.30;;;;;;4242149;28;20050;-71
2021/04/13 12:22:37;;;;;;;10.45;4.18;;;12.60;40.90;;;;;;4173994;28;20055;-71
2021/04/13 12:24:51;;;;;;;6.20;4.82;;;13.10;42.00;;;;;;4203919;27;20048;-71
2021/04/13 12:26:53;;;;;;;8.75;4.57;;;12.90;39.50;;;;;;4232880;28;20044;-70
2021/04/13 12:28:55;;;;;;;9.68;4.57;;;12.90;41.00;;;;;;4232650;28;20524;-69
2021/04/13 12:31:22;;;;;;;9.23;5.53;;;12.60;40.30;;;;;;4232677;28;20096;-69
2021/04/13 12:34:10;;;;;;;8.80;5.70;;;12.40;39.80;;;;;;4233537;28;20051;-71
2021/04/13 12:36:32;;;;;;;7.25;5.03;;;12.00;40.50;;;;;;4235698;28;20043;-72
2021/04/13 12:38:58;;;;;;;13.30;5.65;;;12.00;41.10;;;;;;4239504;27;20054;-70
2021/04/13 12:41:11;;;;;;;12.30;5.75;;;12.10;41.90;;;;;;4245943;27;20424;-78
2021/04/13 12:43:30;;;;;;;8.13;5.13;;;11.60;40.70;;;;;;4232110;28;20075;-70
2021/04/13 12:45:50;;;;;;;13.77;4.72;;;11.60;41.00;;;;;;4244698;27;20108;-71
2021/04/13 12:47:55;;;;;;;9.90;5.20;;;12.20;41.60;;;;;;4251847;27;20027;-72
2021/04/13 12:49:57;;;;;;;14.07;4.43;;;12.50;40.40;;;;;;4254518;27;20057;-74
2021/04/13 12:52:02;;;;;;;10.38;4.72;;;12.70;39.00;;;;;;4217688;28;20641;-70
2021/04/13 12:54:14;;;;;;;6.25;3.75;;;13.60;39.40;;;;;;4234336;28;20065;-69
2021/04/13 12:56:29;;;;;;;10.98;4.78;;;13.90;35.90;;;;;;4218430;28;20043;-71
2021/04/13 12:58:50;;;;;;;9.57;4.93;;;13.70;35.40;;;;;;4231674;27;20339;-74
2021/04/13 13:00:52;;;;;;;22.88;4.47;;;13.50;37.20;;;;;;4242217;27;20047;-73
2021/04/13 13:02:54;;;;;;;8.18;4.80;;;14.00;42.30;;;;;;4241086;27;20077;-74
2021/04/13 13:04:56;;;;;;;7.75;4.47;;;13.20;36.80;;;;;;4239190;27;20061;-71
2021/04/13 13:06:59;;;;;;;13.25;5.07;;;13.00;38.80;;;;;;4238761;27;20043;-74
2021/04/13 13:09:05;;;;;;;9.63;4.70;;;12.60;36.60;;;;;;4238348;27;20043;-72
2021/04/13 13:11:25;;;;;;;9.63;4.50;;;12.50;37.20;;;;;;4232687;27;20079;-72
2021/04/13 13:13:28;;;;;;;10.50;4.72;;;12.30;37.60;;;;;;4229236;27;20537;-71
2021/04/13 13:15:32;;;;;;;6.60;3.97;;;12.40;39.00;;;;;;4234728;27;20060;-71
2021/04/13 13:17:39;;;;;;;8.00;5.05;;;12.60;39.50;;;;;;4233777;27;21144;-71
2021/04/13 13:19:47;;;;;;;7.80;3.95;;;12.50;37.90;;;;;;4238770;27;20438;-76
2021/04/13 13:21:52;;;;;;;9.27;4.63;;;12.40;36.90;;;;;;4249663;27;20043;-73
2021/04/13 13:23:59;;;;;;;8.95;4.70;;;12.40;38.50;;;;;;4246835;27;20241;-73
2021/04/13 13:26:12;;;;;;;12.50;4.95;;;12.70;38.10;;;;;;4236845;27;20040;-73
2021/04/13 13:28:19;;;;;;;12.02;4.95;;;12.80;38.30;;;;;;4241659;27;20039;-73
2021/04/13 13:30:22;;;;;;;8.00;4.72;;;12.70;38.30;;;;;;4224369;28;20040;-73
2021/04/13 13:32:25;;;;;;;10.27;5.13;;;13.00;39.30;;;;;;4244691;27;20053;-74
2021/04/13 13:34:27;;;;;;;8.32;4.60;;;13.10;38.60;;;;;;4239640;27;20065;-73
2021/04/13 13:36:31;;;;;;;9.55;4.28;;;13.30;39.60;;;;;;4243984;27;20062;-73
2021/04/13 13:38:34;;;;;;;16.30;4.95;;;13.60;40.60;;;;;;4242308;27;20260;-72
2021/04/13 13:40:40;;;;;;;10.50;4.63;;;14.20;39.30;;;;;;4235047;27;20130;-72
2021/04/13 13:42:42;;;;;;;8.48;4.95;;;13.60;39.00;;;;;;4222389;28;20056;-73
2021/04/13 13:44:52;;;;;;;15.18;4.95;;;12.90;39.60;;;;;;4234951;27;20046;-72
2021/04/13 13:47:03;;;;;;;8.27;4.45;;;12.70;40.00;;;;;;4232351;27;20067;-76
2021/04/13 13:49:18;;;;;;;5.20;3.80;;;12.50;39.40;;;;;;4233626;27;20043;-72
2021/04/13 13:51:39;;;;;;;10.95;4.28;;;12.70;41.00;;;;;;4231901;27;20131;-73
2021/04/13 13:53:48;;;;;;;10.35;4.80;;;13.10;39.50;;;;;;4236456;27;20040;-72
2021/04/13 13:55:59;;;;;;;9.32;4.07;;;12.90;38.10;;;;;;4230231;27;20052;-73
2021/04/13 13:58:05;;;;;;;7.18;4.40;;;12.90;37.60;;;;;;4236154;27;20048;-74
2021/04/13 14:00:09;;;;;;;11.43;3.90;;;13.10;37.70;;;;;;4239754;27;20433;-76
2021/04/13 14:02:22;;;;;;;9.38;3.67;;;12.90;38.60;;;;;;4234914;27;20052;-75
2021/04/13 14:04:30;;;;;;;6.88;4.07;;;12.70;36.70;;;;;;4230855;28;20086;-73
2021/04/13 14:06:32;;;;;;;5.63;3.70;;;13.00;36.60;;;;;;4230080;28;20044;-72
2021/04/13 14:08:35;;;;;;;7.13;3.63;;;13.00;36.50;;;;;;4228905;28;20051;-72
2021/04/13 14:10:40;;;;;;;14.70;3.63;;;12.90;36.00;;;;;;4230185;28;20099;-72
2021/04/13 14:12:44;;;;;;;9.40;3.33;;;12.70;36.40;;;;;;4212412;28;20048;-76
2021/04/13 14:14:45;;;;;;;7.90;4.38;;;12.70;37.90;;;;;;4230929;28;20075;-72
2021/04/13 14:16:49;;;;;;;7.45;4.05;;;12.70;37.30;;;;;;4231024;28;20050;-72
2021/04/13 14:18:54;;;;;;;8.30;3.92;;;13.10;36.30;;;;;;4230850;28;20046;-73
2021/04/13 14:21:09;;;;;;;15.18;5.20;;;13.00;36.10;;;;;;4244402;27;20035;-72
2021/04/13 14:23:11;;;;;;;10.07;4.85;;;12.50;37.60;;;;;;4248674;27;20061;-71
2021/04/13 14:25:22;;;;;;;10.43;4.90;;;12.90;38.70;;;;;;4248338;27;20039;-71
2021/04/13 14:27:26;;;;;;;14.15;3.22;;;12.70;37.80;;;;;;4247808;27;20039;-71
2021/04/13 14:29:28;;;;;;;7.28;4.28;;;13.40;39.50;;;;;;4250079;27;20063;-72
2021/04/13 14:31:29;;;;;;;6.35;2.92;;;13.30;37.10;;;;;;4256605;27;20043;-72
2021/04/13 14:33:31;;;;;;;8.82;3.92;;;13.70;39.20;;;;;;4250886;27;20083;-72
2021/04/13 14:35:34;;;;;;;9.73;5.88;;;13.60;37.70;;;;;;4233885;28;20479;-73
2021/04/13 14:37:38;;;;;;;8.73;4.43;;;13.40;37.10;;;;;;4252084;27;20043;-73
2021/04/13 14:39:43;;;;;;;8.23;4.70;;;13.30;38.20;;;;;;4252435;27;20050;-71
2021/04/13 14:41:45;;;;;;;9.53;3.77;;;12.80;37.90;;;;;;4254672;27;20057;-71
2021/04/13 14:43:48;;;;;;;7.32;4.10;;;12.90;38.90;;;;;;4254863;27;20455;-72
2021/04/13 14:45:49;;;;;;;10.77;4.32;;;13.10;37.30;;;;;;4235342;27;20058;-69
2021/04/13 14:47:53;;;;;;;7.78;3.72;;;12.50;37.00;;;;;;4239901;27;20069;-68
2021/04/13 14:50:15;;;;;;;10.40;4.13;;;12.40;36.30;;;;;;4218991;28;20083;-72
2021/04/13 14:52:18;;;;;;;8.10;3.92;;;12.40;36.90;;;;;;4233608;28;20051;-69
2021/04/13 14:54:20;;;;;;;5.13;3.53;;;12.50;36.50;;;;;;4230354;28;20052;-74
2021/04/13 14:56:22;;;;;;;11.15;3.80;;;12.70;36.10;;;;;;4230300;28;20043;-68
2021/04/13 14:58:24;;;;;;;13.20;4.72;;;12.90;36.90;;;;;;4230834;28;20054;-69
2021/04/13 15:00:27;;;;;;;12.77;3.70;;;13.10;36.60;;;;;;4235031;28;20054;-69
2021/04/13 15:02:30;;;;;;;11.13;3.53;;;13.90;36.70;;;;;;4249964;27;20130;-69
2021/04/13 15:04:32;;;;;;;6.95;3.72;;;14.00;35.70;;;;;;4249139;27;20046;-70
2021/04/13 15:06:34;;;;;;;7.43;3.22;;;13.90;35.60;;;;;;4247279;27;20434;-69
2021/04/13 15:08:37;;;;;;;8.30;3.53;;;13.60;35.00;;;;;;4246739;27;20371;-68
2021/04/13 15:10:39;;;;;;;14.45;3.72;;;13.40;35.10;;;;;;4246746;28;20049;-71
2021/04/13 15:12:41;;;;;;;7.55;3.63;;;13.40;36.80;;;;;;4246739;28;20054;-70
2021/04/13 15:14:43;;;;;;;4.50;2.70;;;13.20;34.60;;;;;;4246711;28;20510;-69
2021/04/13 15:16:47;;;;;;;9.10;3.38;;;13.10;33.70;;;;;;4246511;28;20039;-70
2021/04/13 15:18:52;;;;;;;6.03;3.60;;;12.80;33.50;;;;;;4246530;28;20486;-71
2021/04/13 15:20:54;;;;;;;7.40;3.90;;;12.90;33.80;;;;;;4246284;28;20039;-70
2021/04/13 15:22:58;;;;;;;9.30;4.47;;;12.70;34.00;;;;;;4246308;28;20055;-70
2021/04/13 15:25:02;;;;;;;8.52;3.80;;;12.40;34.10;;;;;;4233096;28;20595;-72
2021/04/13 15:27:05;;;;;;;9.30;4.97;;;12.60;34.00;;;;;;4229379;28;20039;-70
2021/04/13 15:29:07;;;;;;;6.43;3.10;;;12.70;33.80;;;;;;4229493;28;20609;-69
2021/04/13 15:31:08;;;;;;;6.22;3.50;;;13.00;34.20;;;;;;4211855;28;20491;-71
2021/04/13 15:33:11;;;;;;;9.05;3.22;;;13.30;33.80;;;;;;4229866;28;20391;-69
2021/04/13 15:35:34;;;;;;;9.73;3.95;;;13.70;35.40;;;;;;4230150;28;20046;-70
2021/04/13 15:37:42;;;;;;;7.95;3.13;;;14.10;34.50;;;;;;4229823;28;20055;-70
2021/04/13 15:39:45;;;;;;;11.35;4.00;;;14.20;36.20;;;;;;4236914;28;20058;-69
2021/04/13 15:41:51;;;;;;;10.63;4.43;;;14.10;34.00;;;;;;4246709;28;20047;-69
2021/04/13 15:43:58;;;;;;;7.47;4.00;;;13.90;34.30;;;;;;4246337;28;20043;-69
2021/04/13 15:46:06;;;;;;;8.95;3.85;;;14.10;34.50;;;;;;4230411;28;20083;-70
2021/04/13 15:48:19;;;;;;;9.48;4.50;;;14.00;34.40;;;;;;4243306;28;20430;-70
2021/04/13 15:50:21;;;;;;;8.35;4.15;;;13.50;35.20;;;;;;4248343;28;20100;-69
2021/04/13 15:52:23;;;;;;;8.68;4.00;;;12.60;34.60;;;;;;4249855;28;20069;-75
2021/04/13 15:54:26;;;;;;;8.10;3.80;;;12.60;35.40;;;;;;4252032;28;20053;-72
2021/04/13 15:56:28;;;;;;;5.72;2.90;;;12.70;35.20;;;;;;4247461;28;20539;-69
2021/04/13 15:58:31;;;;;;;8.38;3.42;;;12.90;34.30;;;;;;4247151;27;20051;-74
2021/04/13 16:00:51;;;;;;;8.07;3.08;;;12.70;33.30;;;;;;4244050;27;20455;-71
2021/04/13 16:02:53;;;;;;;8.00;3.38;;;12.50;35.10;;;;;;4249654;27;20054;-72
2021/04/13 16:04:55;;;;;;;7.32;3.10;;;12.70;35.10;;;;;;4241934;27;20051;-76
2021/04/13 16:06:57;;;;;;;8.20;3.30;;;12.80;34.70;;;;;;4236595;28;20047;-75
2021/04/13 16:08:59;;;;;;;14.57;4.85;;;13.00;34.80;;;;;;4249381;27;20107;-74
2021/04/13 16:11:01;;;;;;;8.65;3.55;;;13.00;34.70;;;;;;4249570;27;20051;-73
2021/04/13 16:13:03;;;;;;;6.75;3.50;;;12.90;34.80;;;;;;4257419;27;20043;-75
2021/04/13 16:15:25;;;;;;;8.07;3.08;;;12.90;34.80;;;;;;4251973;27;20757;-71
2021/04/13 16:17:26;;;;;;;4.65;2.92;;;12.80;34.90;;;;;;4248183;27;20047;-71
2021/04/13 16:19:30;;;;;;;6.82;2.80;;;12.60;34.60;;;;;;4248670;27;20086;-71
2021/04/13 16:21:34;;;;;;;6.10;2.58;;;12.20;34.90;;;;;;4243137;27;20047;-70
2021/04/13 16:23:54;;;;;;;9.23;2.25;;;12.60;38.50;;;;;;4245927;27;20105;-71
2021/04/13 16:25:58;;;;;;;3.45;2.42;;;13.20;37.70;;;;;;4230969;28;20108;-72
2021/04/13 16:28:01;;;;;;;5.85;2.75;;;12.90;33.40;;;;;;4232283;28;20479;-73
2021/04/13 16:30:04;;;;;;;8.93;2.75;;;12.90;33.50;;;;;;4234141;28;20048;-72
2021/04/13 16:32:28;;;;;;;5.72;2.95;;;12.60;34.00;;;;;;4236376;28;20051;-72
2021/04/13 16:34:32;;;;;;;5.93;2.50;;;12.60;35.10;;;;;;4233390;28;20074;-73
2021/04/13 16:36:40;;;;;;;6.30;2.90;;;12.60;35.00;;;;;;4232214;28;20048;-73
2021/04/13 16:38:41;;;;;;;7.18;2.45;;;12.30;35.50;;;;;;4231465;28;20043;-71
2021/04/13 16:40:48;;;;;;;4.88;2.47;;;12.40;35.50;;;;;;4246533;27;20053;-72
2021/04/13 16:42:55;;;;;;;7.57;2.58;;;12.50;36.20;;;;;;4249993;27;20535;-72
2021/04/13 16:45:03;;;;;;;3.67;2.42;;;12.80;35.60;;;;;;4241116;27;20047;-71
2021/04/13 16:47:07;;;;;;;4.38;2.42;;;13.00;35.90;;;;;;4239601;27;20039;-71
2021/04/13 16:49:13;;;;;;;7.00;2.28;;;13.00;35.00;;;;;;4251367;27;20047;-69
2021/04/13 16:51:18;;;;;;;5.00;2.60;;;13.60;36.10;;;;;;4248262;27;20062;-71
2021/04/13 16:53:22;;;;;;;8.02;2.42;;;13.20;34.60;;;;;;4243673;27;20487;-70
2021/04/13 16:55:24;;;;;;;4.88;2.28;;;12.90;34.30;;;;;;4235164;28;20079;-72
2021/04/13 16:57:26;;;;;;;4.30;2.05;;;12.20;34.70;;;;;;4240986;27;20095;-73
2021/04/13 16:59:32;;;;;;;5.70;2.33;;;11.80;34.80;;;;;;4245577;27;20039;-70
2021/04/13 17:01:40;;;;;;;4.55;2.53;;;11.70;35.20;;;;;;4240387;27;20035;-73
2021/04/13 17:03:47;;;;;;;4.25;2.20;;;11.90;35.90;;;;;;4249170;27;20039;-70
2021/04/13 17:05:58;;;;;;;5.22;2.25;;;11.90;36.00;;;;;;4251285;27;20460;-70
2021/04/13 17:08:06;;;;;;;8.02;2.38;;;11.70;35.70;;;;;;4249072;27;20047;-70
2021/04/13 17:10:13;;;;;;;4.03;2.67;;;11.90;36.50;;;;;;4252418;27;20043;-68
2021/04/13 17:12:18;;;;;;;3.67;1.65;;;12.00;36.10;;;;;;4251724;27;20050;-71
2021/04/13 17:14:27;;;;;;;4.32;2.10;;;12.50;38.40;;;;;;4248140;27;20182;-69
2021/04/13 17:16:35;;;;;;;15.27;2.15;;;12.60;36.30;;;;;;4235918;27;20088;-69
2021/04/13 17:18:45;;;;;;;3.05;2.03;;;13.00;36.20;;;;;;4237054;27;20058;-70
2021/04/13 17:21:03;;;;;;;5.55;2.20;;;12.90;35.10;;;;;;4235477;27;20134;-69
2021/04/13 17:23:15;;;;;;;9.45;1.85;;;12.70;35.70;;;;;;4235332;27;20056;-69
2021/04/13 17:25:30;;;;;;;6.03;2.17;;;13.10;36.80;;;;;;4221892;28;20090;-68
2021/04/13 17:27:38;;;;;;;7.45;2.50;;;13.00;34.30;;;;;;4222228;28;20056;-70
2021/04/13 17:29:49;;;;;;;5.80;2.33;;;12.70;34.30;;;;;;4238001;27;20134;-68
2021/04/13 17:31:55;;;;;;;5.47;2.90;;;12.40;34.40;;;;;;4222956;27;20044;-69
2021/04/13 17:34:01;;;;;;;5.10;2.30;;;12.30;34.60;;;;;;4225596;27;20119;-70
2021/04/13 17:36:16;;;;;;;5.20;2.67;;;12.40;35.90;;;;;;4241867;27;20051;-68
